DAL1229 CYXU-KBOS
Flight info
| Callsign | DAL1229 |
|---|---|
| Flight time | N/A |
| Altitude | 31000 |
| Route | DCT WOZEE DCT AEVON DCT HANKK DCT PONCT JFUND2 |
| Aircraft | A20N/M-SDE3FGHIRWY/LB1 |
Departure
| Time | 2026-04-25 00:07 |
|---|---|
| Airport | London International Airport (CYXU) |
Arrival
| Time | N/A |
|---|---|
| Airport | Boston Logan International Airport (KBOS) |
| Time | Latitude | Longitude | Altitude | Speed | Heading |
|---|---|---|---|---|---|
| 2026-04-24 23:48 | 43.02917 | -81.14821 | 905 ft | 0 kts | 286° |
| 2026-04-24 23:57 | 43.02912 | -81.14810 | 905 ft | 2 kts | 295° |
| 2026-04-24 23:58 | 43.02913 | -81.14787 | 905 ft | 3 kts | 258° |
| 2026-04-24 23:58 | 43.02914 | -81.14764 | 908 ft | 2 kts | 295° |
| 2026-04-24 23:58 | 43.02913 | -81.14758 | 908 ft | 0 kts | 314° |
| 2026-04-25 00:00 | 43.02949 | -81.14795 | 905 ft | 14 kts | 328° |
| 2026-04-25 00:00 | 43.03013 | -81.14861 | 905 ft | 10 kts | 320° |
| 2026-04-25 00:01 | 43.03079 | -81.14939 | 905 ft | 16 kts | 319° |
| 2026-04-25 00:01 | 43.03189 | -81.15068 | 906 ft | 25 kts | 319° |
| 2026-04-25 00:01 | 43.03319 | -81.15222 | 909 ft | 23 kts | 323° |
| 2026-04-25 00:01 | 43.03428 | -81.15360 | 910 ft | 21 kts | 318° |
| 2026-04-25 00:02 | 43.03536 | -81.15490 | 908 ft | 21 kts | 317° |
| 2026-04-25 00:02 | 43.03637 | -81.15607 | 909 ft | 15 kts | 318° |
| 2026-04-25 00:02 | 43.03701 | -81.15708 | 908 ft | 13 kts | 284° |
| 2026-04-25 00:02 | 43.03691 | -81.15830 | 908 ft | 12 kts | 258° |
| 2026-04-25 00:03 | 43.03673 | -81.15958 | 914 ft | 18 kts | 259° |
| 2026-04-25 00:03 | 43.03647 | -81.16141 | 911 ft | 19 kts | 257° |
| 2026-04-25 00:03 | 43.03674 | -81.16270 | 913 ft | 13 kts | 340° |
| 2026-04-25 00:03 | 43.03718 | -81.16286 | 913 ft | 0 kts | 350° |
| 2026-04-25 00:04 | 43.03796 | -81.16290 | 913 ft | 15 kts | 21° |
| 2026-04-25 00:05 | 43.03823 | -81.16238 | 913 ft | 0 kts | 78° |
| 2026-04-25 00:06 | 43.03872 | -81.15900 | 909 ft | 78 kts | 79° |
| 2026-04-25 00:07 | 43.04032 | -81.14808 | 1061 ft | 142 kts | 79° |
| 2026-04-25 00:07 | 43.04241 | -81.13438 | 1902 ft | 150 kts | 78° |
| 2026-04-25 00:07 | 43.04438 | -81.11995 | 2725 ft | 164 kts | 83° |
| 2026-04-25 00:07 | 43.04651 | -81.10270 | 3025 ft | 210 kts | 79° |
| 2026-04-25 00:08 | 43.04938 | -81.08123 | 3333 ft | 248 kts | 81° |
| 2026-04-25 00:08 | 43.05192 | -81.05645 | 3774 ft | 275 kts | 82° |
| 2026-04-25 00:08 | 43.05435 | -81.02993 | 4539 ft | 286 kts | 82° |
| 2026-04-25 00:08 | 43.05679 | -81.00257 | 5344 ft | 294 kts | 82° |
| 2026-04-25 00:09 | 43.05923 | -80.97461 | 6268 ft | 297 kts | 82° |
| 2026-04-25 00:09 | 43.06161 | -80.94632 | 7169 ft | 301 kts | 82° |
| 2026-04-25 00:09 | 43.06399 | -80.91774 | 8142 ft | 304 kts | 82° |
| 2026-04-25 00:09 | 43.06630 | -80.88888 | 9207 ft | 305 kts | 82° |
| 2026-04-25 00:10 | 43.06847 | -80.86001 | 10217 ft | 308 kts | 82° |
| 2026-04-25 00:10 | 43.07073 | -80.82994 | 10720 ft | 329 kts | 82° |
| 2026-04-25 00:10 | 43.07313 | -80.79794 | 11249 ft | 345 kts | 82° |
| 2026-04-25 00:10 | 43.07559 | -80.76483 | 12035 ft | 353 kts | 83° |
| 2026-04-25 00:11 | 43.07625 | -80.73149 | 12916 ft | 357 kts | 88° |
| 2026-04-25 00:11 | 43.07584 | -80.69733 | 13798 ft | 362 kts | 90° |
| 2026-04-25 00:11 | 43.07474 | -80.66273 | 14546 ft | 367 kts | 91° |
| 2026-04-25 00:11 | 43.07304 | -80.62774 | 15326 ft | 371 kts | 92° |